Time;durP1;ratioP1;P1;durP2;ratioP2;P2;SDS_P1;SDS_P2;PMS_P1;PMS_P2;Temp;Humidity;BMP_temperature;BMP_pressure;BME280_temperature;BME280_humidity;BME280_pressure;Samples;Min_cycle;Max_cycle;Signal;HPM_P1;HPM_P2
2022/05/09 00:00:04;;;;;;;8.82;1.58;;;9.90;91.40;;;;;;4960258;28;21417;-82
2022/05/09 00:02:51;;;;;;;7.93;1.35;;;9.80;91.70;;;;;;4886210;29;20461;-83
2022/05/09 00:05:25;;;;;;;12.18;1.73;;;9.80;91.90;;;;;;4882436;29;20505;-82
2022/05/09 00:08:05;;;;;;;6.85;1.48;;;9.80;92.40;;;;;;4873356;29;20052;-82
2022/05/09 00:10:32;;;;;;;11.30;1.67;;;9.80;92.50;;;;;;4879434;29;20053;-82
2022/05/09 00:12:59;;;;;;;10.38;1.75;;;9.80;92.80;;;;;;4885003;29;20025;-82
2022/05/09 00:15:36;;;;;;;8.02;1.20;;;9.80;92.90;;;;;;4882978;29;20525;-82
2022/05/09 00:18:03;;;;;;;8.82;1.42;;;9.80;93.10;;;;;;4867019;29;20053;-81
2022/05/09 00:20:33;;;;;;;9.43;1.67;;;9.70;93.50;;;;;;4857621;29;20049;-82
2022/05/09 00:23:04;;;;;;;11.80;2.38;;;9.80;93.80;;;;;;4874081;29;20057;-82
2022/05/09 00:25:37;;;;;;;10.82;1.40;;;9.80;94.10;;;;;;4884342;29;20036;-82
2022/05/09 00:28:03;;;;;;;10.10;1.92;;;9.70;94.30;;;;;;4914083;29;20067;-82
2022/05/09 00:30:45;;;;;;;12.15;1.80;;;9.70;94.40;;;;;;4908453;29;20050;-82
2022/05/09 00:33:13;;;;;;;10.00;1.73;;;9.70;94.80;;;;;;4926036;29;20039;-80
2022/05/09 00:35:44;;;;;;;10.05;1.50;;;9.70;94.90;;;;;;4926296;29;20028;-81
2022/05/09 00:38:16;;;;;;;8.20;1.75;;;9.60;94.90;;;;;;4893311;29;20043;-81
2022/05/09 00:43:34;;;;;;;9.13;1.70;;;9.60;95.20;;;;;;4926680;29;20494;-81
2022/05/09 00:46:06;;;;;;;9.55;1.65;;;9.50;95.30;;;;;;4925698;29;20039;-80
2022/05/09 00:48:36;;;;;;;7.70;1.42;;;9.50;95.80;;;;;;4906310;29;20043;-80
2022/05/09 00:51:04;;;;;;;8.43;1.48;;;9.50;96.00;;;;;;4924710;29;20043;-80
2022/05/09 00:53:33;;;;;;;7.65;1.10;;;9.50;96.10;;;;;;4942384;28;20040;-80
2022/05/09 00:56:05;;;;;;;5.47;0.98;;;9.40;96.00;;;;;;4909246;29;20039;-80
2022/05/09 00:58:40;;;;;;;8.20;1.38;;;9.40;96.00;;;;;;4924800;29;20035;-81
2022/05/09 01:01:10;;;;;;;8.35;1.73;;;9.40;96.10;;;;;;4912562;28;20040;-81
2022/05/09 01:04:13;;;;;;;13.52;2.08;;;9.40;96.30;;;;;;4961166;28;20487;-82
2022/05/09 01:06:40;;;;;;;11.10;1.35;;;9.40;96.90;;;;;;4948112;28;20059;-81
2022/05/09 01:09:10;;;;;;;8.02;1.50;;;9.40;96.90;;;;;;4922686;28;20392;-81
2022/05/09 01:11:38;;;;;;;9.13;1.42;;;9.30;96.90;;;;;;4931721;28;20047;-80
2022/05/09 01:14:13;;;;;;;10.50;2.30;;;9.30;97.20;;;;;;4964200;28;20042;-80
2022/05/09 01:16:43;;;;;;;10.80;1.92;;;9.30;97.40;;;;;;4945108;28;20035;-79
2022/05/09 01:19:38;;;;;;;11.80;2.63;;;9.30;97.70;;;;;;4947244;28;20031;-80
2022/05/09 01:22:21;;;;;;;10.18;2.35;;;9.30;97.80;;;;;;4951983;28;20027;-80
2022/05/09 01:24:48;;;;;;;8.23;1.48;;;9.20;97.90;;;;;;4918323;28;20042;-79
2022/05/09 01:27:15;;;;;;;7.35;1.33;;;9.20;98.10;;;;;;4942995;28;20039;-80
2022/05/09 01:29:55;;;;;;;8.80;1.30;;;9.20;98.30;;;;;;4945687;28;20023;-80
2022/05/09 01:32:31;;;;;;;6.93;1.85;;;9.20;98.40;;;;;;4961179;28;20035;-81
2022/05/09 01:35:16;;;;;;;5.07;1.23;;;9.20;98.50;;;;;;4919349;28;20046;-80
2022/05/09 01:37:47;;;;;;;6.53;1.38;;;9.10;98.50;;;;;;4922120;28;20054;-80
2022/05/09 01:40:15;;;;;;;8.27;1.60;;;9.10;98.50;;;;;;4946383;28;20049;-80
2022/05/09 01:42:42;;;;;;;7.82;1.85;;;9.10;98.50;;;;;;4946514;28;20049;-81
2022/05/09 01:45:10;;;;;;;8.57;1.30;;;9.10;98.70;;;;;;4949743;28;20035;-80
2022/05/09 01:50:42;;;;;;;8.10;1.38;;;9.00;98.80;;;;;;4936083;28;20510;-80
2022/05/09 01:53:23;;;;;;;8.82;1.90;;;9.00;99.10;;;;;;4963981;28;20387;-80
2022/05/09 01:55:56;;;;;;;9.88;1.10;;;9.00;99.30;;;;;;4946396;28;20035;-80
2022/05/09 01:58:31;;;;;;;6.38;1.40;;;8.90;99.20;;;;;;4947960;28;20046;-81
2022/05/09 02:01:17;;;;;;;8.70;1.70;;;8.90;99.20;;;;;;4949351;28;20030;-80
2022/05/09 02:04:34;;;;;;;10.20;1.70;;;8.90;99.50;;;;;;4928894;29;20044;-81
2022/05/09 02:07:49;;;;;;;8.95;1.98;;;8.80;99.70;;;;;;4920361;29;20413;-81
2022/05/09 02:10:20;;;;;;;12.43;1.45;;;8.80;99.90;;;;;;4927463;29;20050;-81
2022/05/09 02:13:03;;;;;;;9.10;1.55;;;8.70;99.90;;;;;;4913627;29;20059;-81
2022/05/09 02:15:31;;;;;;;14.30;1.90;;;8.70;99.90;;;;;;4929315;29;20086;-80
2022/05/09 02:18:17;;;;;;;11.18;1.80;;;8.70;99.90;;;;;;4908965;29;20056;-80
2022/05/09 02:21:19;;;;;;;9.93;1.67;;;8.70;99.90;;;;;;4923721;29;20035;-80
2022/05/09 02:23:49;;;;;;;7.60;1.83;;;8.60;99.90;;;;;;4911280;29;20304;-80
2022/05/09 02:26:27;;;;;;;7.17;1.73;;;8.60;99.90;;;;;;4909445;29;20062;-80
2022/05/09 02:28:54;;;;;;;7.40;1.45;;;8.60;99.90;;;;;;4891137;29;20056;-80
2022/05/09 02:31:24;;;;;;;11.93;2.20;;;8.50;99.90;;;;;;4921988;29;20027;-81
2022/05/09 02:34:01;;;;;;;8.75;1.70;;;8.50;99.90;;;;;;4894728;29;20079;-81
2022/05/09 02:36:30;;;;;;;11.63;1.52;;;8.50;99.90;;;;;;4879466;29;20055;-80
2022/05/09 02:39:12;;;;;;;7.10;1.75;;;8.50;99.90;;;;;;4906564;29;20056;-80
2022/05/09 02:41:43;;;;;;;6.95;1.90;;;8.50;99.90;;;;;;4911081;29;20479;-81
2022/05/09 02:44:37;;;;;;;10.35;2.42;;;8.40;99.90;;;;;;4920854;29;20052;-80
2022/05/09 02:47:25;;;;;;;9.20;1.80;;;8.40;99.90;;;;;;4919622;29;20071;-81
2022/05/09 02:49:55;;;;;;;10.23;1.98;;;8.40;99.90;;;;;;4936445;29;20043;-80
2022/05/09 02:52:22;;;;;;;11.77;2.05;;;8.40;99.90;;;;;;4911993;29;20329;-80
2022/05/09 02:54:48;;;;;;;9.13;2.00;;;8.30;99.90;;;;;;4923458;29;20039;-81
2022/05/09 02:57:15;;;;;;;11.55;2.00;;;8.30;99.90;;;;;;4917175;29;20523;-80
2022/05/09 02:59:44;;;;;;;9.95;2.00;;;8.30;99.90;;;;;;4937085;29;20528;-80
2022/05/09 03:02:10;;;;;;;10.02;1.90;;;8.30;99.90;;;;;;4912401;28;20501;-81
2022/05/09 03:04:40;;;;;;;6.75;1.52;;;8.30;99.90;;;;;;4945385;28;20046;-80
2022/05/09 03:07:11;;;;;;;8.15;1.90;;;8.20;99.90;;;;;;4960023;28;20057;-81
2022/05/09 03:09:42;;;;;;;7.05;1.38;;;8.20;99.90;;;;;;4948116;28;20043;-81
2022/05/09 03:12:10;;;;;;;9.85;1.65;;;8.20;99.90;;;;;;4942668;28;20032;-81
2022/05/09 03:14:38;;;;;;;7.03;1.25;;;8.20;99.90;;;;;;4948252;28;20398;-81
2022/05/09 03:17:09;;;;;;;10.23;1.80;;;8.20;99.90;;;;;;4963534;28;20058;-80
2022/05/09 03:19:41;;;;;;;5.68;1.48;;;8.20;99.90;;;;;;4928932;28;20039;-80
2022/05/09 03:22:13;;;;;;;6.05;1.35;;;8.20;99.90;;;;;;4943993;28;20042;-80
2022/05/09 03:24:39;;;;;;;7.47;1.80;;;8.20;99.90;;;;;;4963658;28;20047;-80
2022/05/09 03:27:06;;;;;;;5.88;1.48;;;8.10;99.90;;;;;;4945043;28;20054;-80
2022/05/09 03:29:33;;;;;;;8.32;2.05;;;8.10;99.90;;;;;;4927655;28;20047;-80
2022/05/09 03:32:02;;;;;;;10.90;1.95;;;8.10;99.90;;;;;;4951349;28;20026;-80
2022/05/09 03:34:38;;;;;;;9.10;1.83;;;8.10;99.90;;;;;;4941575;28;20046;-81
2022/05/09 03:37:06;;;;;;;8.63;1.88;;;8.10;99.90;;;;;;4942046;28;20042;-80
2022/05/09 03:39:36;;;;;;;7.07;1.40;;;8.00;99.90;;;;;;4935870;28;20470;-81
2022/05/09 03:42:13;;;;;;;7.80;1.27;;;8.00;99.90;;;;;;4927583;28;20027;-81
2022/05/09 03:44:40;;;;;;;;;;;8.00;99.90;;;;;;4931027;28;20402;-81
2022/05/09 03:47:07;;;;;;;6.53;1.10;;;8.00;99.90;;;;;;4958231;28;20297;-81
2022/05/09 03:49:36;;;;;;;6.65;1.63;;;8.00;99.90;;;;;;4962002;28;20043;-81
2022/05/09 03:52:08;;;;;;;7.90;1.58;;;8.00;99.90;;;;;;4941230;28;20034;-81
2022/05/09 03:55:04;;;;;;;5.10;1.30;;;8.00;99.90;;;;;;4901165;28;20061;-81
2022/05/09 03:57:55;;;;;;;12.60;1.65;;;8.00;99.90;;;;;;4942148;28;20391;-81
2022/05/09 04:00:25;;;;;;;10.43;1.98;;;8.00;99.90;;;;;;4941004;28;20368;-81
2022/05/09 04:03:04;;;;;;;5.70;1.30;;;7.90;99.90;;;;;;4955257;28;21584;-82
2022/05/09 04:05:37;;;;;;;6.78;1.23;;;7.90;99.90;;;;;;4924229;28;20043;-80
2022/05/09 04:08:11;;;;;;;8.25;1.42;;;8.00;99.90;;;;;;4919283;28;20051;-81
2022/05/09 04:10:45;;;;;;;6.60;1.75;;;7.90;99.90;;;;;;4914446;28;20042;-81
2022/05/09 04:13:22;;;;;;;7.53;1.98;;;8.00;99.90;;;;;;4947344;28;20030;-80
2022/05/09 04:18:44;;;;;;;9.38;1.50;;;8.00;99.90;;;;;;4956210;28;20050;-80
2022/05/09 04:21:17;;;;;;;5.40;1.02;;;8.00;99.90;;;;;;4956837;28;20471;-80
2022/05/09 04:23:48;;;;;;;6.25;1.55;;;8.00;99.90;;;;;;4955262;28;20059;-80
2022/05/09 04:27:06;;;;;;;9.43;1.70;;;8.00;99.90;;;;;;4959887;28;20023;-80
2022/05/09 04:29:41;;;;;;;9.95;1.65;;;8.00;99.90;;;;;;4942915;28;20046;-78
2022/05/09 04:32:14;;;;;;;10.05;2.03;;;8.20;99.90;;;;;;4954562;28;20455;-79
2022/05/09 04:34:44;;;;;;;6.95;1.35;;;8.20;99.90;;;;;;4958146;28;20051;-80
2022/05/09 04:37:15;;;;;;;15.10;4.43;;;8.30;99.90;;;;;;4958962;28;20046;-81
2022/05/09 04:39:45;;;;;;;19.38;7.07;;;8.40;99.90;;;;;;4947771;28;20043;-80
2022/05/09 04:42:20;;;;;;;15.52;5.78;;;8.40;99.90;;;;;;4930997;28;20050;-81
2022/05/09 04:44:47;;;;;;;11.02;4.60;;;8.50;99.90;;;;;;4960058;28;22909;-78
2022/05/09 04:47:21;;;;;;;10.13;3.58;;;8.60;99.90;;;;;;4943469;28;20042;-81
2022/05/09 04:50:19;;;;;;;;;;;8.70;99.90;;;;;;4938916;28;20034;-80
2022/05/09 04:52:48;;;;;;;36.95;14.43;;;8.80;99.90;;;;;;4961462;28;19917;-80
2022/05/09 04:55:15;;;;;;;16.10;6.28;;;9.00;99.90;;;;;;4929941;28;21270;-79
2022/05/09 04:57:43;;;;;;;15.63;5.75;;;9.00;99.90;;;;;;4941876;28;20036;-81
2022/05/09 05:00:15;;;;;;;10.82;3.75;;;9.20;99.90;;;;;;4928695;28;20656;-82
2022/05/09 05:02:42;;;;;;;10.52;3.20;;;9.30;99.90;;;;;;4945961;28;20039;-81
2022/05/09 05:05:10;;;;;;;9.20;2.67;;;9.50;99.90;;;;;;4914897;28;20047;-77
2022/05/09 05:07:36;;;;;;;10.27;2.58;;;9.60;99.90;;;;;;4949499;28;20034;-80
2022/05/09 05:10:04;;;;;;;14.10;2.92;;;9.70;99.90;;;;;;4930714;28;20046;-80
2022/05/09 05:12:31;;;;;;;8.00;2.20;;;9.90;99.90;;;;;;4960926;28;20042;-81
2022/05/09 05:14:58;;;;;;;8.52;1.60;;;10.00;99.90;;;;;;4931729;28;20064;-81
2022/05/09 05:17:25;;;;;;;11.75;1.63;;;10.10;99.90;;;;;;4910896;28;20046;-80
2022/05/09 05:19:51;;;;;;;6.90;2.15;;;10.20;99.90;;;;;;4930714;28;20054;-80
2022/05/09 05:22:18;;;;;;;8.20;1.90;;;10.40;99.90;;;;;;4934249;28;20035;-79
2022/05/09 05:24:45;;;;;;;7.22;1.70;;;10.50;99.90;;;;;;4926183;28;20049;-77
2022/05/09 05:27:13;;;;;;;8.93;2.22;;;10.60;99.90;;;;;;4939540;28;20696;-78
2022/05/09 05:29:41;;;;;;;16.38;2.75;;;10.80;99.90;;;;;;4944879;28;20054;-78
2022/05/09 05:32:20;;;;;;;7.75;1.90;;;10.90;99.90;;;;;;4910407;28;20031;-79
2022/05/09 05:34:48;;;;;;;8.10;1.60;;;11.10;99.90;;;;;;4945646;28;20030;-80
2022/05/09 05:37:18;;;;;;;6.18;1.83;;;11.20;99.90;;;;;;4915171;28;20031;-80
2022/05/09 05:39:46;;;;;;;13.27;2.60;;;11.30;99.70;;;;;;4962769;28;20011;-79
2022/05/09 05:42:17;;;;;;;10.23;3.83;;;11.50;99.50;;;;;;4941160;28;20126;-78
2022/05/09 05:44:45;;;;;;;13.93;3.72;;;11.60;99.30;;;;;;4961866;28;20034;-79
2022/05/09 05:47:18;;;;;;;11.30;2.47;;;11.80;99.20;;;;;;4926318;28;20031;-82
2022/05/09 05:50:18;;;;;;;18.20;7.53;;;12.00;98.80;;;;;;4916123;28;20031;-81
2022/05/09 05:52:58;;;;;;;12.98;3.10;;;12.20;98.50;;;;;;4942413;28;20034;-81
2022/05/09 05:55:44;;;;;;;10.73;2.80;;;12.30;98.20;;;;;;4921652;28;20053;-81
2022/05/09 05:58:14;;;;;;;10.50;3.20;;;12.50;97.90;;;;;;4929409;28;20039;-82
2022/05/09 06:01:00;;;;;;;11.32;3.20;;;12.60;97.50;;;;;;4923797;28;20050;-81
2022/05/09 06:03:58;;;;;;;8.63;2.35;;;12.70;97.30;;;;;;4936815;28;20039;-79
2022/05/09 06:06:25;;;;;;;9.52;1.80;;;12.80;97.10;;;;;;4910985;28;20369;-82
2022/05/09 06:08:59;;;;;;;6.95;1.92;;;13.00;97.10;;;;;;4871319;29;20053;-80
2022/05/09 06:11:34;;;;;;;6.60;1.45;;;13.20;96.90;;;;;;4881389;29;20048;-84
2022/05/09 06:14:07;;;;;;;8.20;1.55;;;13.40;96.50;;;;;;4870776;29;20037;-84
2022/05/09 06:16:50;;;;;;;;;;;;;;;;;;;;;
2022/05/09 06:19:57;;;;;;;11.57;2.78;;;13.70;95.80;;;;;;4865269;29;20040;-84
2022/05/09 06:22:38;;;;;;;8.52;2.30;;;13.80;95.30;;;;;;4858669;29;20036;-85
2022/05/09 06:26:14;;;;;;;7.47;2.00;;;13.90;94.80;;;;;;4818012;29;20125;-85
2022/05/09 06:33:47;;;;;;;8.48;1.42;;;14.70;93.90;;;;;;4807527;29;20508;-85
2022/05/09 06:36:48;;;;;;;9.73;1.90;;;15.20;93.20;;;;;;4835934;29;20619;-84
2022/05/09 06:40:29;;;;;;;;;;;;;;;;;;;;;
2022/05/09 06:42:59;;;;;;;8.35;1.70;;;15.60;92.20;;;;;;4828458;29;20455;-84
2022/05/09 06:46:19;;;;;;;;;;;;;;;;;;;;;
2022/05/09 06:49:45;;;;;;;9.80;1.83;;;15.90;91.60;;;;;;4859605;29;20063;-85
2022/05/09 06:52:20;;;;;;;7.82;1.67;;;16.30;91.00;;;;;;4883289;29;20652;-84
2022/05/09 06:55:17;;;;;;;9.35;1.50;;;16.50;90.50;;;;;;4887215;29;20043;-87
2022/05/09 06:57:50;;;;;;;10.20;2.10;;;16.70;90.10;;;;;;4869815;29;20404;-89
2022/05/09 07:00:32;;;;;;;9.60;2.30;;;16.80;88.50;;;;;;4880557;29;20047;-89
2022/05/09 07:03:08;;;;;;;8.68;1.83;;;16.70;87.80;;;;;;4910465;29;20067;-89
2022/05/09 07:09:11;;;;;;;7.47;1.55;;;16.60;87.20;;;;;;4902688;29;20082;-90
2022/05/09 07:11:39;;;;;;;8.27;1.60;;;16.60;87.20;;;;;;4892201;29;20362;-86
2022/05/09 07:14:07;;;;;;;5.43;1.50;;;16.70;87.40;;;;;;4892736;29;20027;-87
2022/05/09 07:16:34;;;;;;;4.65;1.00;;;16.80;86.20;;;;;;4892883;29;20693;-84
2022/05/09 07:19:01;;;;;;;8.80;1.60;;;16.80;86.20;;;;;;4892946;29;20047;-86
2022/05/09 07:21:28;;;;;;;5.72;1.85;;;16.90;85.90;;;;;;4905391;29;20054;-87
2022/05/09 07:24:00;;;;;;;6.30;1.30;;;17.00;85.10;;;;;;4905745;29;20039;-88
2022/05/09 07:26:31;;;;;;;6.97;1.52;;;17.00;84.70;;;;;;4914721;29;20936;-86
2022/05/09 07:29:24;;;;;;;7.30;1.63;;;17.00;84.50;;;;;;4926253;29;20503;-86
2022/05/09 07:31:51;;;;;;;5.47;1.58;;;17.10;84.40;;;;;;4886004;29;20039;-86
2022/05/09 07:34:18;;;;;;;23.13;11.32;;;17.20;84.20;;;;;;4906801;29;20024;-85
2022/05/09 07:36:45;;;;;;;10.68;4.28;;;17.20;83.50;;;;;;4896927;29;20040;-86
2022/05/09 07:39:14;;;;;;;8.95;2.85;;;17.30;83.60;;;;;;4922846;29;20036;-84
2022/05/09 07:41:42;;;;;;;6.72;2.03;;;17.50;83.70;;;;;;4904424;29;20034;-84
2022/05/09 07:44:11;;;;;;;10.60;1.77;;;17.60;83.40;;;;;;4909583;29;20035;-87
2022/05/09 07:46:44;;;;;;;6.72;1.67;;;17.80;83.00;;;;;;4929526;29;20027;-83
2022/05/09 07:49:15;;;;;;;6.43;1.85;;;17.90;82.30;;;;;;4932334;29;20039;-88
2022/05/09 07:51:44;;;;;;;7.25;2.05;;;18.10;82.00;;;;;;4910822;29;20040;-88
2022/05/09 08:03:24;;;;;;;6.53;2.00;;;18.50;80.80;;;;;;4936834;28;20418;-88
2022/05/09 08:06:04;;;;;;;5.45;1.60;;;18.70;80.00;;;;;;4926815;28;20420;-86
2022/05/09 08:08:38;;;;;;;6.07;1.98;;;18.90;79.70;;;;;;4940304;28;20062;-85
2022/05/09 08:11:05;;;;;;;5.07;1.27;;;19.00;79.30;;;;;;4912420;28;20490;-87
2022/05/09 08:13:40;;;;;;;8.48;1.45;;;19.20;78.80;;;;;;4950338;28;20039;-86
2022/05/09 08:16:12;;;;;;;5.68;1.40;;;19.20;77.70;;;;;;4922732;28;20106;-87
2022/05/09 08:18:48;;;;;;;7.38;1.80;;;19.30;77.20;;;;;;4936170;28;20042;-87
2022/05/09 08:21:15;;;;;;;7.10;1.88;;;19.40;76.90;;;;;;4968364;28;20035;-87
2022/05/09 08:23:49;;;;;;;6.95;1.65;;;19.40;76.60;;;;;;4967079;28;20038;-85
2022/05/09 08:26:22;;;;;;;7.28;1.48;;;19.60;76.10;;;;;;4920698;28;20054;-86
2022/05/09 08:28:49;;;;;;;6.90;2.15;;;19.80;75.90;;;;;;4950304;28;20050;-85
2022/05/09 08:31:18;;;;;;;7.95;2.10;;;20.00;75.70;;;;;;4932833;28;20031;-86
2022/05/09 08:33:46;;;;;;;5.90;1.30;;;20.20;75.30;;;;;;4931805;28;20418;-87
2022/05/09 08:36:45;;;;;;;8.18;1.45;;;20.40;75.20;;;;;;4937482;28;20082;-85
2022/05/09 08:39:04;;;;;;;5.75;1.50;;;20.50;73.90;;;;;;4966759;28;20043;-86
2022/05/09 08:41:54;;;;;;;8.57;1.83;;;20.60;73.00;;;;;;4940945;28;20031;-87
2022/05/09 08:44:21;;;;;;;5.45;1.35;;;20.70;72.10;;;;;;4955192;28;20034;-87
2022/05/09 08:46:48;;;;;;;5.90;1.67;;;20.80;71.40;;;;;;4967764;28;20493;-87
2022/05/09 08:49:36;;;;;;;8.07;2.08;;;20.80;70.80;;;;;;4941107;28;20035;-84
2022/05/09 08:52:25;;;;;;;10.50;2.92;;;20.90;70.10;;;;;;4966206;28;20031;-86
2022/05/09 08:54:54;;;;;;;5.70;2.08;;;21.10;69.50;;;;;;4956387;28;20487;-90
2022/05/09 08:57:28;;;;;;;5.45;1.63;;;21.20;69.10;;;;;;4954329;28;20011;-83
2022/05/09 09:00:27;;;;;;;9.43;2.47;;;21.40;68.80;;;;;;4932439;28;20031;-88
2022/05/09 09:03:38;;;;;;;4.78;2.45;;;21.40;67.40;;;;;;4928656;28;20043;-87
2022/05/09 09:06:42;;;;;;;7.60;2.25;;;21.50;67.10;;;;;;4955290;28;20380;-86
2022/05/09 09:10:09;;;;;;;7.75;2.10;;;21.60;66.10;;;;;;4957571;28;20039;-91
2022/05/09 09:12:48;;;;;;;4.97;1.40;;;21.80;64.50;;;;;;4955283;28;20045;-90
2022/05/09 09:16:12;;;;;;;8.70;2.42;;;21.90;63.30;;;;;;4957826;28;20041;-90
2022/05/09 09:19:39;;;;;;;7.93;1.98;;;22.10;63.20;;;;;;4928004;28;20359;-90
2022/05/09 09:24:00;;;;;;;;;;;;;;;;;;;;;
2022/05/09 09:27:30;;;;;;;6.32;2.10;;;22.80;61.90;;;;;;4962386;28;20042;-88
2022/05/09 09:30:13;;;;;;;8.38;1.90;;;22.90;60.30;;;;;;4933484;28;20042;-90
2022/05/09 09:33:53;;;;;;;5.60;1.48;;;23.00;59.80;;;;;;4940689;28;20031;-91
2022/05/09 09:36:55;;;;;;;3.78;0.70;;;23.00;59.50;;;;;;4932582;28;20039;-89
2022/05/09 09:40:43;;;;;;;5.38;0.80;;;23.20;58.20;;;;;;4922249;29;20047;-89
2022/05/09 09:43:22;;;;;;;5.70;1.10;;;23.30;58.10;;;;;;4892900;29;20066;-88
2022/05/09 09:46:38;;;;;;;4.50;0.80;;;23.50;58.40;;;;;;4891349;29;20039;-88
2022/05/09 09:50:16;;;;;;;2.55;0.73;;;23.70;55.50;;;;;;4887547;29;20040;-87
2022/05/09 09:58:24;;;;;;;7.38;1.23;;;24.00;55.70;;;;;;4920796;29;20032;-88
2022/05/09 10:01:20;;;;;;;6.53;1.20;;;24.00;53.90;;;;;;4904742;29;20036;-88
2022/05/09 10:04:36;;;;;;;5.32;1.13;;;24.00;54.20;;;;;;4906484;29;20032;-89
2022/05/09 10:07:45;;;;;;;3.72;0.80;;;23.90;52.50;;;;;;4884349;29;20252;-88
2022/05/09 10:15:41;;;;;;;;;;;;;;;;;;;;;
2022/05/09 10:19:32;;;;;;;3.05;0.50;;;24.30;53.20;;;;;;4883142;29;20503;-88
2022/05/09 10:25:56;;;;;;;6.38;1.33;;;25.00;53.00;;;;;;4874186;29;20033;-89
2022/05/09 10:29:08;;;;;;;7.78;1.30;;;25.10;52.60;;;;;;4947563;28;20044;-87
2022/05/09 10:31:54;;;;;;;;;;;;;;;;;;;;;
2022/05/09 10:35:12;;;;;;;3.38;0.70;;;25.10;51.60;;;;;;4924172;28;20035;-84
2022/05/09 10:37:48;;;;;;;3.60;1.00;;;25.30;52.30;;;;;;4947075;28;20367;-84
2022/05/09 10:40:42;;;;;;;6.05;1.35;;;25.60;52.40;;;;;;4960852;28;20014;-84
2022/05/09 10:43:21;;;;;;;3.53;1.23;;;25.90;51.90;;;;;;4943049;28;20047;-85
2022/05/09 10:45:53;;;;;;;5.18;1.48;;;26.10;51.20;;;;;;4930382;28;20057;-81
2022/05/09 10:48:42;;;;;;;5.50;1.02;;;26.30;51.10;;;;;;4941303;28;20038;-84
2022/05/09 10:51:56;;;;;;;5.75;1.77;;;26.50;51.00;;;;;;4944774;28;20019;-84
2022/05/09 10:54:59;;;;;;;4.80;1.13;;;26.80;50.30;;;;;;4957887;28;20035;-82
2022/05/09 10:58:18;;;;;;;6.10;1.50;;;27.00;50.20;;;;;;4926535;28;20027;-83
2022/05/09 11:02:13;;;;;;;5.95;1.40;;;27.20;49.50;;;;;;4915482;29;20132;-84
2022/05/09 11:08:30;;;;;;;4.40;1.35;;;27.60;48.10;;;;;;4889888;29;20036;-80
2022/05/09 11:11:43;;;;;;;6.72;1.55;;;28.00;49.30;;;;;;4925444;29;20498;-81
2022/05/09 11:14:39;;;;;;;6.70;1.55;;;28.40;47.80;;;;;;4914635;29;20391;-83
2022/05/09 11:17:59;;;;;;;9.25;2.10;;;28.70;46.90;;;;;;4898078;29;20511;-83
2022/05/09 11:21:13;;;;;;;8.30;1.20;;;29.10;46.30;;;;;;4926571;29;20055;-83
2022/05/09 11:24:11;;;;;;;5.75;1.27;;;29.50;46.10;;;;;;4881143;29;20047;-83
2022/05/09 11:27:02;;;;;;;3.97;1.15;;;30.00;45.90;;;;;;4898110;29;20051;-81
2022/05/09 11:29:53;;;;;;;6.22;1.33;;;30.50;44.80;;;;;;4881492;29;21186;-80
2022/05/09 11:32:43;;;;;;;7.25;1.15;;;30.70;43.70;;;;;;4934464;28;20500;-83
2022/05/09 11:35:32;;;;;;;5.15;1.45;;;30.80;43.40;;;;;;4920832;29;20046;-80
2022/05/09 11:38:11;;;;;;;13.52;10.80;;;31.10;42.00;;;;;;4916648;29;20039;-81
2022/05/09 11:41:01;;;;;;;4.72;2.55;;;31.40;41.00;;;;;;4919453;29;20031;-81
2022/05/09 11:43:59;;;;;;;6.57;1.70;;;31.70;40.20;;;;;;4935336;29;20051;-82
2022/05/09 11:47:05;;;;;;;4.05;1.10;;;31.90;38.90;;;;;;4937887;29;20028;-82
2022/05/09 11:50:08;;;;;;;4.35;1.25;;;32.20;38.50;;;;;;4939105;29;20052;-82
2022/05/09 11:52:41;;;;;;;6.00;0.80;;;32.10;38.10;;;;;;4895128;29;20035;-82
2022/05/09 11:55:22;;;;;;;3.78;1.05;;;32.30;38.30;;;;;;4928474;29;20399;-83
2022/05/09 11:57:55;;;;;;;4.53;0.82;;;32.50;38.00;;;;;;4913779;29;20050;-81
2022/05/09 12:00:35;;;;;;;3.25;0.95;;;32.80;37.90;;;;;;4923113;29;20035;-80
2022/05/09 12:03:09;;;;;;;6.07;2.97;;;33.30;37.10;;;;;;4910629;29;20048;-80
2022/05/09 12:05:37;;;;;;;4.07;1.10;;;33.60;37.00;;;;;;4905627;29;20348;-82
2022/05/09 12:08:17;;;;;;;5.03;1.55;;;33.80;35.90;;;;;;4923025;29;20047;-81
2022/05/09 12:10:49;;;;;;;3.33;0.68;;;33.70;36.70;;;;;;4921037;29;20031;-80
2022/05/09 12:13:19;;;;;;;;;;;33.80;36.70;;;;;;4912739;29;20384;-81
2022/05/09 12:15:53;;;;;;;;;;;34.10;36.30;;;;;;4928664;29;19925;-81
2022/05/09 12:18:23;;;;;;;4.10;1.15;;;34.40;36.30;;;;;;4912575;29;19918;-81
2022/05/09 12:20:53;;;;;;;5.22;1.30;;;34.50;35.60;;;;;;4924735;29;20050;-84
2022/05/09 12:23:41;;;;;;;4.22;1.83;;;34.70;35.70;;;;;;4912088;29;20031;-81
2022/05/09 12:26:10;;;;;;;4.18;0.85;;;35.10;35.10;;;;;;4895624;29;20047;-83
2022/05/09 12:28:43;;;;;;;4.13;1.20;;;35.30;35.00;;;;;;4922576;29;20047;-83
2022/05/09 12:31:32;;;;;;;5.13;1.20;;;35.50;35.10;;;;;;4923335;28;20062;-83
2022/05/09 12:33:59;;;;;;;4.00;0.90;;;35.60;34.30;;;;;;4938993;29;20379;-84
2022/05/09 12:36:32;;;;;;;5.18;0.90;;;35.70;34.70;;;;;;4939535;29;20431;-83
2022/05/09 12:39:09;;;;;;;5.03;0.80;;;35.80;34.80;;;;;;4908179;29;20043;-83
2022/05/09 12:41:55;;;;;;;3.40;0.85;;;36.00;34.50;;;;;;4906683;29;20046;-84
2022/05/09 12:44:23;;;;;;;6.35;1.17;;;36.40;34.60;;;;;;4911712;29;20036;-84
2022/05/09 12:47:06;;;;;;;4.68;1.20;;;36.60;34.20;;;;;;4922713;29;20475;-84
2022/05/09 12:49:40;;;;;;;4.50;1.02;;;36.80;34.40;;;;;;4939417;29;20028;-85
2022/05/09 12:52:08;;;;;;;6.47;2.88;;;36.90;34.10;;;;;;4894406;29;20380;-84
2022/05/09 12:54:39;;;;;;;5.85;1.27;;;37.10;34.00;;;;;;4926382;29;20055;-84
2022/05/09 12:57:07;;;;;;;6.13;1.58;;;37.20;33.10;;;;;;4923649;29;20562;-84
2022/05/09 12:59:52;;;;;;;10.82;4.05;;;36.80;32.80;;;;;;4928486;29;20055;-85
2022/05/09 13:02:24;;;;;;;7.25;1.80;;;36.70;33.90;;;;;;4913927;29;20058;-85
2022/05/09 13:04:52;;;;;;;6.10;2.75;;;36.90;33.70;;;;;;4943629;29;20407;-90
2022/05/09 13:07:22;;;;;;;4.50;1.88;;;37.30;33.50;;;;;;4900828;29;20391;-90
2022/05/09 13:09:55;;;;;;;7.03;4.05;;;37.60;33.30;;;;;;4931981;29;20040;-90
2022/05/09 13:12:38;;;;;;;4.15;1.90;;;37.70;32.50;;;;;;4918296;29;20247;-90
2022/05/09 13:15:15;;;;;;;3.58;1.52;;;37.70;32.50;;;;;;4917938;29;20043;-89
2022/05/09 13:17:55;;;;;;;4.00;0.98;;;37.80;33.20;;;;;;4915219;29;20395;-84
2022/05/09 13:20:24;;;;;;;8.25;3.60;;;38.00;32.80;;;;;;4946527;29;20031;-85
2022/05/09 13:22:55;;;;;;;4.63;2.28;;;38.10;32.70;;;;;;4915588;29;20042;-84
2022/05/09 13:26:01;;;;;;;4.35;1.20;;;38.40;32.00;;;;;;4900097;29;20363;-83
2022/05/09 13:28:46;;;;;;;4.70;1.25;;;38.70;31.80;;;;;;4944834;29;20058;-83
2022/05/09 13:31:35;;;;;;;5.20;1.25;;;39.00;31.10;;;;;;4930480;29;20462;-84
2022/05/09 13:34:04;;;;;;;4.60;1.33;;;39.10;31.80;;;;;;4921930;29;20039;-84
2022/05/09 13:36:37;;;;;;;3.58;1.20;;;39.40;31.60;;;;;;4945830;29;20496;-84
2022/05/09 13:39:05;;;;;;;3.80;0.90;;;39.40;31.00;;;;;;4913634;29;20039;-84
2022/05/09 13:41:32;;;;;;;6.05;1.30;;;39.40;31.40;;;;;;4915141;29;20428;-83
2022/05/09 13:44:07;;;;;;;3.42;1.05;;;39.60;31.30;;;;;;4913734;29;20035;-83
2022/05/09 13:46:36;;;;;;;6.88;1.23;;;39.80;30.90;;;;;;4932378;29;20050;-81
2022/05/09 13:49:11;;;;;;;3.10;1.20;;;39.90;30.60;;;;;;4913358;29;20044;-82
2022/05/09 13:51:50;;;;;;;4.00;1.40;;;40.00;30.50;;;;;;4928025;29;20054;-83
2022/05/09 13:54:22;;;;;;;4.53;0.95;;;40.10;30.90;;;;;;4900496;29;20071;-83
2022/05/09 13:57:07;;;;;;;3.88;1.05;;;40.40;31.10;;;;;;4929410;29;20371;-82
2022/05/09 13:59:36;;;;;;;3.30;0.88;;;40.60;30.60;;;;;;4935219;29;20055;-83
2022/05/09 14:02:10;;;;;;;4.60;1.88;;;40.80;30.30;;;;;;4899482;29;20071;-85
2022/05/09 14:04:49;;;;;;;22.83;17.73;;;40.80;29.90;;;;;;4917311;28;20065;-83
2022/05/09 14:10:23;;;;;;;4.57;1.40;;;40.90;30.00;;;;;;4958196;28;20539;-81
2022/05/09 14:12:50;;;;;;;5.25;1.98;;;40.90;29.80;;;;;;4932868;28;20510;-82
2022/05/09 14:15:25;;;;;;;4.78;1.33;;;40.70;30.00;;;;;;4918206;28;20039;-83
2022/05/09 14:18:09;;;;;;;4.00;0.95;;;40.60;29.70;;;;;;4952948;28;20046;-82
2022/05/09 14:20:40;;;;;;;5.15;1.10;;;40.60;29.90;;;;;;4960683;28;20047;-81
2022/05/09 14:23:14;;;;;;;4.90;1.45;;;40.80;30.10;;;;;;4961669;28;20041;-81
2022/05/09 14:32:08;;;;;;;;;;;;;;;;;;;;;
2022/05/09 14:34:52;;;;;;;6.10;1.42;;;40.70;29.70;;;;;;4943458;28;20034;-82
2022/05/09 14:37:32;;;;;;;5.35;1.35;;;39.80;29.60;;;;;;4959750;28;20027;-82
2022/05/09 14:40:15;;;;;;;4.95;1.08;;;38.90;30.20;;;;;;4942418;28;20042;-85
2022/05/09 14:42:50;;;;;;;4.85;1.60;;;37.70;31.50;;;;;;4955280;28;20351;-81
2022/05/09 14:45:21;;;;;;;5.82;1.27;;;36.00;31.60;;;;;;4943198;28;20019;-82
2022/05/09 14:47:51;;;;;;;4.63;1.10;;;34.60;33.10;;;;;;4954216;28;20042;-81
2022/05/09 14:50:40;;;;;;;9.13;5.00;;;34.10;33.90;;;;;;4958649;28;20776;-81
2022/05/09 14:53:19;;;;;;;7.50;4.43;;;34.50;33.80;;;;;;4955401;28;20038;-81
2022/05/09 14:59:12;;;;;;;3.00;1.00;;;36.20;32.70;;;;;;4953973;28;20055;-80
2022/05/09 15:02:02;;;;;;;8.43;3.22;;;36.70;32.30;;;;;;4952336;28;20042;-79